6883940 - Big Sandy Creek at Alexandria

Latitude:
40.23527º N
Longitude:
97.38828º W
Type:
Stream
River Basin:
Little Blue
Source:
NeDNR

Info! The graphs are now plotted with new date ranges.
Warning! If you see this please check date range (or) the data is not available.

 to 


—— Provisional Data Subject to Revision ——

Instantaneous Discharge

6883940 - Big Sandy Creek at Alexandria
- Ice Possible      - Equipment Malfunction
- Seasonal      -Rating in Development
- Measured



Instantaneous Stage

6883940 - Big Sandy Creek at Alexandria
- Ice Possible      - Equipment Malfunction
- Seasonal      -Rating in Development
- Measured



 to 


—— Provisional Data Subject to Revision ——

Daily Discharge

6883940 - Big Sandy Creek at Alexandria
- Approved      - Provisional


Export
Date Time Discharge (cfs) Stage (feet) Shift (feet)
11/05/2019 11:47 26.9 2.77 0.43
10/29/2019 13:40 29.3 2.80 0.43
09/30/2019 14:14 63.8 1.99 -0.40
09/05/2019 12:00 47.2 1.75 -0.31
08/08/2019 12:06 223 2.69 0.07
07/02/2019 14:24 30.3 1.53 -0.29
06/05/2019 13:27 185 2.54 0.00
05/30/2019 11:20 1,740 6.88 0.13
05/09/2019 10:53 65.5 1.60 0.86
04/22/2019 11:13 25.1 1.17 0.91
04/15/2019 13:07 25.5 1.20 0.89
04/02/2019 12:09 45.7 2.33 -0.03
03/25/2019 10:02 117 2.71 0.11
02/14/2019 10:42 21.6 2.10 -0.06
01/10/2019 10:07 29.8 2.25 -0.12
12/11/2018 11:00 62.5 2.51 -0.07
11/15/2018 11:27 14.7 2.12 -0.19
10/03/2018 11:44 15.3 1.80 0.14
09/04/2018 14:00 3,100 9.96 -0.99
09/04/2018 13:43 4,360 9.94 0.51
08/06/2018 12:45 11.8 1.71 0.17
07/05/2018 13:24 18.4 1.88 0.11
06/12/2018 12:05 13.2 1.91 -0.01
05/02/2018 12:28 14.1 1.97 -0.05
04/12/2018 12:10 14.1 2.04 -0.11
03/13/2018 11:10 13.9 1.92 0.24
02/14/2018 11:19 14.2 1.91 0.25
01/10/2018 10:51 13.6 1.91 0.24
12/04/2017 11:42 12.5 1.92 0.22
11/02/2017 12:49 12.1 1.90 0.23
10/16/2017 11:57 26.1 2.09 0.22
09/11/2017 13:07 9.26 1.89 0.20
08/01/2017 12:26 10.3 2.00 0.11
07/03/2017 12:12 14.5 2.04 0.13
06/07/2017 13:15 19.9 2.11 0.13
05/09/2017 11:55 20.0 1.86 0.38
04/11/2017 12:33 16.3 1.77 0.42
03/08/2017 10:54 15.5 1.76 0.42
02/07/2017 10:56 17.6 1.81 0.40
12/28/2016 11:43 15.2 1.92 0.25
12/05/2016 11:08 14.5 1.91 0.26
11/03/2016 12:32 14.3 1.90 0.26
10/18/2016 12:11 14.1 1.91 0.25
09/08/2016 12:15 13.8 1.86 0.30
08/02/2016 11:44 34.3 2.12 0.27
07/06/2016 12:12 17.9 1.93 0.28
06/06/2016 14:08 83.7 2.60 0.19
05/24/2016 14:57 18.1 2.18 0.03
04/15/2016 12:04 15.7 2.04 0.14
03/08/2016 11:06 15.2 2.04 0.14
02/11/2016 11:24 14.5 2.03 0.14
01/06/2016 11:45 15.3 1.99 0.19
12/09/2015 11:12 13.9 1.84 0.32
11/19/2015 10:50 13.7 1.83 0.33
10/23/2015 14:28 14.5 1.86 0.31
10/14/2015 12:47 11.9 1.83 0.30
09/22/2015 11:07 12.8 1.85 0.29
08/20/2015 13:44 25.8 2.01 0.29
07/21/2015 11:29 48.7 2.39 0.11
07/08/2015 12:25 24.8 2.15 0.14
06/05/2015 11:27 6,970 12.94 1.54
05/27/2015 14:02 21.7 2.01 0.25
04/27/2015 11:32 13.4 2.12 0.03
03/23/2015 12:19 12.5 2.11 0.03
02/24/2015 23:25 12.6 2.13 0.01
01/26/2015 10:48 14.0 2.12 0.04
12/05/2014 12:07 12.5 2.11 0.03
11/10/2014 10:38 11.6 2.11 0.02
10/28/2014 12:29 11.0 2.11 0.01
09/15/2014 12:51 13.0 2.08 0.07
08/07/2014 12:14 15.5 2.13 0.05
07/08/2014 11:45 15.3 2.15 0.03
07/01/2014 12:55 73.1 2.95 -0.24
06/16/2014 11:32 15.7 2.21 -0.03
05/15/2014 15:01 14.3 2.18 -0.02
04/23/2014 12:40 13.3 2.24 -0.09
03/20/2014 12:30 14.3 2.20 -0.04
02/19/2014 10:27 13.4 2.19 -0.04
01/13/2014 11:37 13.6 2.18 -0.03
12/03/2013 14:44 12.9 2.19 -0.04
11/08/2013 11:22 56.7 2.85 -0.27
10/09/2013 13:55 44.2 2.69 -0.22
09/12/2013 12:07 11.4 2.21 -0.09
08/01/2013 13:47 19.6 2.38 -0.15
07/24/2013 14:29 22.7 2.45 -0.18
06/18/2013 13:00 20.6 2.36 -0.11
05/30/2013 16:00 1,840 7.26 0.71
05/16/2013 11:45 15.0 2.15 0.02
04/08/2013 12:15 15.9 2.16 0.02
03/14/2013 12:15 15.8 2.14 0.04
02/13/2013 11:30 13.7 2.16 0.00
01/11/2013 11:15 14.4 2.20 -0.03
12/05/2012 11:45 13.1 2.26 -0.11
11/14/2012 10:45 12.6 2.22 -0.08
10/23/2012 12:00 13.8 2.21 -0.05
09/06/2012 13:00 9.82 2.07 0.03
08/07/2012 11:30 19.7 2.18 0.05
07/16/2012 13:30 19.2 2.22 0.01
06/14/2012 13:45 15.1 1.94 0.23
05/14/2012 13:00 21.6 2.01 0.25
04/13/2012 11:00 19.3 2.27 -0.04
03/21/2012 11:15 19.4 2.30 -0.07
02/27/2012 12:15 17.4 2.32 -0.12
01/04/2012 13:21 18.5 2.30 -0.08
12/08/2011 10:30 20.3 2.30 -0.06
11/09/2011 12:32 19.0 2.28 -0.05
10/11/2011 11:43 19.1 2.26 -0.03
09/22/2011 13:25 19.3 2.25 -0.02
08/23/2011 12:53 31.3 2.46 -0.10
07/15/2011 11:36 26.2 2.25 0.06
06/23/2011 13:15 22.4 2.28 -0.01
05/12/2011 1:00 28.6 2.47 -0.14
04/20/2011 13:28 21.9 2.48 -0.22
03/17/2011 11:48 28.0 2.55 -0.22
02/16/2011 13:04 34.4 2.69 -0.30
01/06/2011 13:40 20.6 2.56 -0.32
12/10/2010 11:58 21.1 2.56 -0.31
11/18/2010 12:44 22.5 2.57 -0.30
10/22/2010 12:38 19.8 2.51 -0.28
09/21/2010 12:28 25.2 2.65 -0.35
08/24/2010 12:30 1,800 7.37 0.52
07/29/2010 12:56 25.5 2.59 -0.29
06/28/2010 12:00 299 3.87 0.05
05/28/2010 12:13 26.3 2.50 -0.19
04/28/2010 12:28 38.6 2.65 -0.23
03/31/2010 12:28 29.6 2.58 -0.24
02/23/2010 13:00 19.8 2.40 -0.16
01/13/2010 13:15 18.0 2.40 -0.19
11/30/2009 11:30 31.2 2.49 -0.13
10/28/2009 12:40 20.6 2.51 -0.26
09/23/2009 13:15 19.4 2.46 -0.23
08/31/2009 14:00 29.2 2.60 -0.26
07/30/2009 13:08 23.6 2.48 -0.20
06/29/2009 13:15 27.8 2.53 -0.21
05/28/2009 12:35 22.9 2.40 -0.13
05/04/2009 12:30 28.7 2.40 -0.07
04/01/2009 13:33 21.8 2.37 -0.11
02/25/2009 12:00 23.0 2.39 -0.12
01/22/2009 11:15 23.6 2.37 -0.09
11/19/2008 11:20 30.1 2.65 -0.30
10/24/2008 13:15 1,590 7.03 0.43
09/30/2008 12:01 24.2 2.49 -0.20
08/27/2008 13:24 28.9 2.52 -0.19
07/29/2008 12:00 43.5 2.45 0.01
06/25/2008 13:00 39.4 2.68 -0.25
05/28/2008 14:10 130 3.28 -0.18
04/29/2008 12:40 31.4 2.59 -0.23
03/20/2008 12:08 21.0 2.45 -0.20
02/29/2008 11:10 33.6 2.57 -0.19
12/19/2007 10:50 18.3 2.33 -0.11
11/13/2007 11:30 21.0 2.40 -0.15
10/24/2007 12:15 75.2 2.92 -0.20
09/27/2007 12:30 91.6 2.97 -0.13
08/13/2007 12:03 34.5 2.38 0.01
08/01/2007 13:15 11,700 15.64 -0.16
07/25/2007 13:30 26.6 2.45 -0.14
06/20/2007 13:45 25.4 2.45 -0.15
05/29/2007 12:00 35.5 2.72 -0.32
04/26/2007 12:45 253 3.74 -0.01
03/28/2007 12:42 21.5 2.38 -0.12
02/21/2007 11:20 388 4.40 -0.15
01/31/2007 11:00 17.7 2.18 0.03
12/13/2006 11:27 17.3 2.24 -0.04
11/22/2006 11:18 17.4 2.25 -0.05
10/25/2006 12:29 17.3 2.25 -0.05
09/19/2006 14:30 76.2 2.98 -0.25
08/23/2006 12:00 116 3.13 -0.12
06/27/2006 13:45 16.1 2.38 -0.19
05/19/2006 14:15 18.7 2.39 -0.17
04/27/2006 13:45 18.6 2.41 -0.19
03/29/2006 10:55 17.7 2.46 -0.25
02/14/2006 11:20 17.0 2.43 -0.23
01/06/2006 11:50 16.3 2.41 -0.22
11/21/2005 12:18 16.6 2.43 -0.24
10/18/2005 12:44 16.1 2.39 -0.20
09/27/2005 12:57 15.9 2.40 -0.22
08/30/2005 12:02 22.8 2.50 -0.23
07/27/2005 13:00 911 5.73 0.16
06/23/2005 13:48 48.0 2.66 -0.16
05/24/2005 13:58 20.3 2.44 -0.20
04/27/2005 13:55 24.6 2.54 -0.25
03/28/2005 11:50 22.3 2.36 -0.09
02/04/2005 12:45 18.6 2.33 -0.11
12/16/2004 11:16 20.1 2.39 -0.15
11/23/2004 11:42 19.2 2.37 -0.14
10/19/2004 14:30 19.1 2.34 -0.11
09/28/2004 14:04 18.7 2.29 -0.07
08/27/2004 12:09 49.5 2.60
07/27/2004 13:27 37.4 2.42
06/22/2004 13:43 90.4 2.83
05/19/2004 11:15 509 4.42
04/14/2004 11:54 26.0 2.18
03/24/2004 13:52 22.5 2.20
02/26/2004 13:15 36.2 2.34
01/15/2004 10:15 19.5 2.11
12/18/2003 12:30 19.4 2.15
11/20/2003 10:47 15.4 2.16
10/10/2003 14:48 16.4 2.19
09/24/2003 12:56 34.9 2.39
08/21/2003 12:14 58.1 2.51
07/14/2003 15:17 46.7 2.52
06/23/2003 12:30 8,130 14.07
06/11/2003 13:05 135 3.48
05/14/2003 12:40 151 3.33
04/11/2003 12:13 20.8 2.45
02/12/2003 9:55 19.0 2.43
01/15/2003 9:45 19.0 2.44
12/10/2002 10:27 20.8 2.42
11/06/2002 13:03 25.8 2.54
09/24/2002 14:25 16.6 2.80
09/04/2002 13:28 16.3 2.83
08/02/2002 13:00 78.7 3.40
06/25/2002 14:19 19.1 2.83
05/21/2002 14:40 21.3 2.79
04/16/2002 12:00 21.8 2.79
03/28/2002 13:30 22.0 2.85
03/13/2002 13:07 20.3 2.44
03/05/2002 9:30 21.4 2.80
01/29/2002 12:00 20.8 2.78
12/20/2001 11:05 22.2 2.81
12/03/2001 11:40 22.7 2.81
11/29/2001 11:50 20.8 2.82
10/30/2001 12:15 21.8 2.85
09/25/2001 12:10 128 3.58
08/27/2001 13:25 34.8 2.89
07/30/2001 14:15 57.0 3.10
06/29/2001 11:30 34.1 2.85
06/05/2001 13:20 500 4.79
04/24/2001 13:15 23.2 2.52
03/29/2001 12:30 32.5 2.65
03/06/2001 12:40 98.2 3.07
01/23/2001 12:30 20.2 2.64
12/27/2000 13:30 20.8 2.65
12/05/2000 12:15 19.9 2.65
10/12/2000 13:10 19.8 2.67
09/27/2000 15:00 19.3 2.66
08/23/2000 13:30 42.9 2.94
07/20/2000 10:30 220 3.90
06/22/2000 14:00 22.9 2.74
05/23/2000 15:20 26.3 2.78
04/25/2000 12:30 27.1 2.77
03/30/2000 11:45 25.6 2.79
02/23/2000 11:45 29.1 2.79
01/26/2000 12:00 22.1 2.75
12/28/1999 10:40 24.0 2.75
11/29/1999 13:30 24.0 2.72
10/07/1999 16:40 21.5 2.77
09/28/1999 13:30 21.0 2.76
08/12/1999 14:20 175 3.77
07/19/1999 15:00 64.4 3.15
06/23/1999 13:00 57.1 2.95
05/21/1999 12:50 1,090 6.40
04/28/1999 12:30 31.2 2.65
03/30/1999 11:30 33.3 2.65
02/25/1999 10:45 24.8 2.56
01/26/1999 10:30 25.4 2.54
12/15/1998 10:50 28.0 2.58
12/09/1998 11:15 24.2 2.59
11/18/1998 11:10 27.5 2.68
10/21/1998 10:40 24.9 2.62
09/22/1998 14:10 31.1 2.71
08/17/1998 13:00 48.2 2.95
07/23/1998 11:00 175 3.76
06/18/1998 10:15 53.7 2.94
05/26/1998 16:00 26.4 2.65
04/22/1998 13:10 32.9 2.81
03/24/1998 12:20 88.4 3.12
02/23/1998 12:20 28.1 2.57
01/27/1998 16:30 24.8 2.45
12/15/1997 12:00 27.8 2.60
11/17/1997 12:55 25.6 2.58
10/10/1997 14:00 22.7 2.45
09/24/1997 12:10 91.0 2.93
08/20/1997 13:40 258 3.88
07/22/1997 12:00 43.9 2.71
06/25/1997 14:05 6,850 13.30
06/13/1997 10:45 24.0 2.80
05/22/1997 13:00 22.7 2.84
04/18/1997 12:30 37.9 2.97
03/25/1997 13:35 26.5 2.88
02/19/1997 16:00 46.6 2.97
01/21/1997 14:10 28.1 2.79
12/16/1996 12:50 29.5 2.84
11/19/1996 12:20 1,300 6.88
11/05/1996 14:00 23.1 3.02
10/23/1996 9:25 21.5 3.03
09/24/1996 17:40 32.4 3.18
08/22/1996 12:20 68.1 3.18
07/25/1996 11:30 29.7 2.98
06/27/1996 15:30 71.1 3.32
05/24/1996 10:15 590 5.38
04/18/1996 9:35 23.3 2.91
03/19/1996 13:30 23.1 2.93
02/21/1996 10:00 22.0 2.94
01/17/1996 10:00 24.6 2.96
12/15/1995 11:20 24.0 2.95
11/21/1995 12:15 22.0 2.97
10/17/1995 13:10 21.0 2.96
09/20/1995 13:20 21.6 2.95
08/23/1995 15:15 26.7 2.98
07/20/1995 13:45 282 4.26
06/16/1995 13:30 34.4 3.00
05/25/1995 10:00 139 3.58
05/09/1995 11:10 427 4.79
05/01/1995 16:00 44.5 2.96
04/06/1995 15:30 24.1 2.75
03/14/1995 11:10 30.1 2.86
02/08/1995 14:40 36.5 2.76
01/04/1995 15:40 24.7 2.77
12/05/1994 11:50 24.8 2.75
11/09/1994 13:30 24.8 2.75
10/24/1994 11:30 22.7 2.75
10/12/1994 12:50 21.8 2.76
09/07/1994 12:20 25.6 2.77
08/02/1994 17:15 37.0 2.93
06/30/1994 9:00 41.2 2.88
05/19/1994 10:10 32.2 2.80
03/15/1994 13:30 38.3 3.10
02/16/1994 15:00 26.7 2.85
01/14/1994 8:45 25.9 2.84
12/21/1993 8:25 27.9 2.84
11/16/1993 8:35 33.6 2.88
10/20/1993 13:15 101 3.46
09/21/1993 10:00 207 3.91
07/27/1993 12:15 5,390 12.48
03/25/1987 10:30 4,530 12.18
05/14/1985 13:00 1,990 8.73
06/13/1984 13:00 12,200 15.22
06/06/1984 13:00 1,220 7.20
04/04/1984 12:00 1,080 7.04
09/29/1983 13:00 8,290 15.00
06/14/1983 13:00 2,260 9.30
07/02/1982 13:00 6,560 14.45
05/25/1982 13:00 2,400 9.70
05/12/1982 13:00 1,280 7.60
Export



Download Rating Curve
  
0.76     6.26
0.77     6.53
0.78     6.80
0.79     7.09
0.80     7.38
0.81     7.68
0.82     7.99
0.83     8.31
0.84     8.63
0.85     8.97
0.86     9.31
0.87     9.66
0.88     10.02
0.89     10.39
0.90     10.77
0.91     11.16
0.92     11.56
0.93     11.97
0.94     12.38
0.95     12.81
0.96     13.25
0.97     13.70
0.98     14.16
0.99     14.63
1.00     15.10
1.01     15.59
1.02     16.10
1.03     16.61
1.04     17.13
1.05     17.67
1.06     18.21
1.07     18.77
1.08     19.34
1.09     19.92
1.10     20.51
1.11     21.11
1.12     21.73
1.13     22.36
1.14     23.00
1.15     23.65
1.16     24.32
1.17     25.00
1.18     25.66
1.19     26.34
1.20     27.03
1.21     27.72
1.22     28.44
1.23     29.16
1.24     29.89
1.25     30.64
1.26     31.40
1.27     32.18
1.28     32.96
1.29     33.76
1.30     34.57
1.31     35.40
1.32     36.24
1.33     37.09
1.34     37.95
1.35     38.83
1.36     39.72
1.37     40.63
1.38     41.55
1.39     42.48
1.40     43.43
1.41     44.39
1.42     45.37
1.43     46.36
1.44     47.36
1.45     48.38
1.46     49.42
1.47     50.47
1.48     51.53
1.49     52.61
1.50     53.70
1.51     54.81
1.52     55.94
1.53     57.08
1.54     58.23
1.55     59.40
1.56     60.59
1.57     61.79
1.58     63.01
1.59     64.25
1.60     65.50
1.61     66.42
1.62     67.35
1.63     68.29
1.64     69.24
1.65     70.19
1.66     71.15
1.67     72.11
1.68     73.09
1.69     74.07
1.70     75.06
1.71     76.05
1.72     77.06
1.73     78.07
1.74     79.08
1.75     80.11
Download Rating Curve